createdAt,value
2018-09-22T00:00:25.076Z,1.90
2018-09-22T00:02:52.921Z,2.30
2018-09-22T00:05:20.709Z,2.97
2018-09-22T00:07:48.450Z,2.30
2018-09-22T00:10:16.209Z,3.30
2018-09-22T00:12:43.926Z,4.10
2018-09-22T00:15:11.875Z,2.40
2018-09-22T00:17:39.609Z,2.03
2018-09-22T00:20:07.477Z,2.13
2018-09-22T00:22:35.528Z,2.40
2018-09-22T00:25:03.352Z,2.33
2018-09-22T00:27:31.077Z,3.63
2018-09-22T00:29:58.809Z,2.23
2018-09-22T00:32:26.705Z,3.00
2018-09-22T00:34:54.424Z,2.50
2018-09-22T00:37:22.173Z,2.75
2018-09-22T00:39:49.928Z,1.93
2018-09-22T00:42:18.589Z,2.50
2018-09-22T00:44:46.343Z,2.63
2018-09-22T00:47:14.083Z,2.83
2018-09-22T00:49:41.850Z,1.93
2018-09-22T00:52:09.625Z,2.70
2018-09-22T00:54:37.404Z,2.20
2018-09-22T00:57:05.220Z,2.70
2018-09-22T00:59:32.989Z,1.97
2018-09-22T01:02:00.743Z,1.50
2018-09-22T01:04:28.703Z,2.90
2018-09-22T01:06:56.438Z,1.62
2018-09-22T01:09:24.176Z,2.52
2018-09-22T01:11:51.906Z,1.90
2018-09-22T01:14:19.693Z,2.40
2018-09-22T01:16:47.432Z,2.30
2018-09-22T01:19:15.321Z,2.80
2018-09-22T01:21:43.133Z,2.60
2018-09-22T01:24:10.889Z,3.03
2018-09-22T01:26:38.752Z,2.30
2018-09-22T01:29:06.601Z,2.17
2018-09-22T01:31:34.338Z,2.20
2018-09-22T01:34:02.129Z,4.12
2018-09-22T01:36:29.916Z,2.13
2018-09-22T01:38:57.717Z,2.00
2018-09-22T01:41:25.483Z,2.20
2018-09-22T01:43:53.288Z,2.70
2018-09-22T01:46:21.018Z,3.40
2018-09-22T01:48:48.748Z,2.90
2018-09-22T01:51:16.492Z,2.63
2018-09-22T01:53:44.282Z,2.70
2018-09-22T01:56:12.042Z,2.47
2018-09-22T01:58:39.751Z,2.57
2018-09-22T02:01:07.564Z,2.40
2018-09-22T02:03:35.289Z,1.90
2018-09-22T02:06:03.077Z,3.17
2018-09-22T02:08:30.820Z,3.40
2018-09-22T02:10:58.658Z,2.77
2018-09-22T02:13:26.500Z,1.90
2018-09-22T02:15:54.553Z,2.60
2018-09-22T02:18:22.269Z,2.23
2018-09-22T02:20:50.093Z,2.58
2018-09-22T02:23:17.869Z,4.00
2018-09-22T02:25:45.693Z,2.87
2018-09-22T02:28:13.460Z,3.13
2018-09-22T02:30:41.296Z,3.13
2018-09-22T02:33:09.064Z,2.42
2018-09-22T02:35:36.851Z,3.27
2018-09-22T02:38:04.607Z,2.30
2018-09-22T02:40:32.352Z,2.03
2018-09-22T02:43:00.113Z,2.30
2018-09-22T02:45:27.858Z,3.20
2018-09-22T02:47:55.601Z,2.43
2018-09-22T02:50:23.323Z,2.52
2018-09-22T02:52:51.177Z,3.90
2018-09-22T02:55:18.905Z,2.67
2018-09-22T02:57:46.651Z,2.23
2018-09-22T03:00:14.371Z,2.47
2018-09-22T03:02:42.180Z,2.27
2018-09-22T03:05:09.920Z,2.17
2018-09-22T03:07:37.695Z,3.53
2018-09-22T03:10:05.932Z,3.13
2018-09-22T03:12:33.730Z,2.90
2018-09-22T03:15:02.289Z,2.70
2018-09-22T03:17:30.056Z,3.47
2018-09-22T03:19:57.918Z,2.67
2018-09-22T03:22:25.648Z,3.37
2018-09-22T03:24:53.400Z,3.70
2018-09-22T03:27:21.143Z,3.20
2018-09-22T03:29:48.989Z,4.17
2018-09-22T03:32:16.752Z,2.62
2018-09-22T03:34:44.505Z,2.77
2018-09-22T03:37:12.297Z,3.67
2018-09-22T03:39:40.104Z,3.20
2018-09-22T03:42:07.905Z,2.50
2018-09-22T03:44:35.669Z,3.02
2018-09-22T03:47:03.439Z,2.83
2018-09-22T03:49:31.210Z,3.00
2018-09-22T03:51:59.068Z,2.25
2018-09-22T03:54:26.845Z,2.42
2018-09-22T03:56:54.593Z,3.12
2018-09-22T03:59:22.412Z,1.90
2018-09-22T04:01:50.173Z,2.98
2018-09-22T04:04:17.928Z,3.58
2018-09-22T04:06:45.676Z,2.92
2018-09-22T04:09:13.435Z,2.33
2018-09-22T04:11:41.201Z,2.30
2018-09-22T04:14:08.978Z,2.13
2018-09-22T04:16:36.745Z,2.60
2018-09-22T04:19:04.601Z,2.72
2018-09-22T04:21:32.402Z,2.45
2018-09-22T04:24:04.705Z,3.25
2018-09-22T04:26:32.444Z,2.83
2018-09-22T04:29:00.244Z,2.62
2018-09-22T04:31:28.042Z,3.72
2018-09-22T04:33:55.780Z,2.63
2018-09-22T04:36:23.546Z,2.75
2018-09-22T04:38:57.920Z,2.33
2018-09-22T04:41:25.699Z,2.45
2018-09-22T04:43:53.421Z,2.33
2018-09-22T04:46:21.176Z,2.90
2018-09-22T04:48:48.921Z,2.40
2018-09-22T04:51:16.715Z,2.90
2018-09-22T04:53:44.445Z,2.60
2018-09-22T04:56:12.184Z,2.22
2018-09-22T04:58:40.002Z,2.30
2018-09-22T05:01:07.739Z,2.33
2018-09-22T05:03:35.504Z,2.30
2018-09-22T05:06:03.271Z,2.37
2018-09-22T05:08:31.041Z,3.12
2018-09-22T05:10:58.816Z,3.02
2018-09-22T05:13:26.600Z,2.55
2018-09-22T05:15:54.397Z,2.47
2018-09-22T05:18:22.167Z,2.80
2018-09-22T05:20:49.908Z,3.80
2018-09-22T05:23:17.700Z,2.70
2018-09-22T05:25:45.495Z,2.92
2018-09-22T05:28:13.285Z,2.37
2018-09-22T05:30:41.123Z,2.93
2018-09-22T05:33:08.956Z,2.40
2018-09-22T05:35:36.705Z,3.00
2018-09-22T05:38:04.498Z,3.20
2018-09-22T05:40:32.290Z,3.10
2018-09-22T05:43:00.089Z,2.65
2018-09-22T05:45:27.907Z,3.03
2018-09-22T05:47:55.667Z,2.90
2018-09-22T05:50:23.658Z,2.60
2018-09-22T05:52:51.452Z,3.75
2018-09-22T05:55:19.231Z,2.63
2018-09-22T05:57:47.020Z,3.60
2018-09-22T06:00:14.812Z,2.90
2018-09-22T06:02:42.616Z,3.23
2018-09-22T06:05:10.371Z,2.50
2018-09-22T06:07:38.136Z,2.37
2018-09-22T06:10:06.007Z,3.07
2018-09-22T06:12:33.780Z,2.30
2018-09-22T06:15:01.531Z,2.10
2018-09-22T06:17:29.309Z,1.72
2018-09-22T06:19:57.073Z,2.57
2018-09-22T06:22:24.849Z,1.90
2018-09-22T06:24:52.625Z,2.60
2018-09-22T06:27:20.360Z,3.27
2018-09-22T06:29:48.132Z,2.30
2018-09-22T06:32:15.917Z,2.58
2018-09-22T06:34:43.692Z,2.02
2018-09-22T06:37:11.420Z,2.57
2018-09-22T06:39:39.207Z,2.35
2018-09-22T06:42:06.974Z,2.53
2018-09-22T06:44:34.708Z,2.80
2018-09-22T06:47:02.518Z,2.50
2018-09-22T06:49:30.250Z,2.60
2018-09-22T06:51:58.079Z,2.52
2018-09-22T06:54:25.819Z,1.77
2018-09-22T06:56:53.662Z,2.40
2018-09-22T06:59:21.410Z,2.20
2018-09-22T07:01:49.241Z,2.20
2018-09-22T07:04:16.968Z,3.13
2018-09-22T07:06:44.710Z,2.20
2018-09-22T07:09:12.465Z,1.85
2018-09-22T07:11:40.233Z,1.53
2018-09-22T07:14:07.989Z,2.80
2018-09-22T07:16:35.693Z,2.70
2018-09-22T07:19:03.469Z,2.43
2018-09-22T07:21:36.928Z,1.90
2018-09-22T07:24:04.712Z,2.90
2018-09-22T07:26:32.467Z,2.47
2018-09-22T07:29:00.254Z,1.90
2018-09-22T07:31:28.024Z,3.07
2018-09-22T07:33:55.789Z,2.17
2018-09-22T07:36:23.582Z,2.47
2018-09-22T07:38:51.404Z,2.00
2018-09-22T07:41:19.378Z,2.63
2018-09-22T07:43:47.102Z,1.57
2018-09-22T07:46:14.873Z,3.53
2018-09-22T07:48:42.645Z,2.50
2018-09-22T07:51:10.434Z,2.00
2018-09-22T07:53:38.513Z,2.00
2018-09-22T07:56:06.336Z,2.33
2018-09-22T07:58:34.079Z,2.33
2018-09-22T08:01:01.931Z,1.93
2018-09-22T08:03:29.844Z,2.60
2018-09-22T08:05:57.636Z,2.60
2018-09-22T08:08:25.461Z,1.93
2018-09-22T08:10:53.232Z,1.53
2018-09-22T08:13:21.011Z,2.10
2018-09-22T08:15:48.841Z,2.37
2018-09-22T08:18:16.655Z,2.43
2018-09-22T08:20:44.392Z,1.90
2018-09-22T08:23:12.157Z,3.47
2018-09-22T08:25:39.922Z,3.03
2018-09-22T08:28:07.796Z,1.63
2018-09-22T08:30:35.552Z,2.60
2018-09-22T08:33:03.329Z,2.60
2018-09-22T08:35:31.078Z,2.30
2018-09-22T08:37:58.852Z,1.83
2018-09-22T08:40:26.631Z,1.90
2018-09-22T08:42:54.405Z,2.33
2018-09-22T08:45:22.244Z,2.10
2018-09-22T08:47:50.057Z,2.37
2018-09-22T08:50:17.917Z,2.00
2018-09-22T08:52:45.721Z,2.60
2018-09-22T08:55:13.541Z,1.63
2018-09-22T08:57:41.337Z,1.73
2018-09-22T09:00:09.160Z,1.73
2018-09-22T09:02:37.001Z,2.13
2018-09-22T09:05:04.968Z,2.37
2018-09-22T09:07:32.694Z,2.30
2018-09-22T09:10:00.417Z,2.37
2018-09-22T09:12:28.274Z,1.63
2018-09-22T09:14:56.099Z,1.43
2018-09-22T09:17:23.884Z,1.37
2018-09-22T09:19:52.218Z,1.93
2018-09-22T09:22:19.968Z,1.83
2018-09-22T09:24:47.761Z,1.50
2018-09-22T09:27:15.536Z,1.30
2018-09-22T09:29:43.356Z,1.53
2018-09-22T09:32:11.202Z,1.40
2018-09-22T09:34:38.981Z,1.90
2018-09-22T09:37:07.458Z,1.83
2018-09-22T09:39:35.205Z,1.20
2018-09-22T09:42:02.975Z,1.60
2018-09-22T09:44:30.761Z,1.77
2018-09-22T09:46:58.532Z,1.30
2018-09-22T09:49:26.337Z,1.87
2018-09-22T09:51:54.073Z,1.87
2018-09-22T09:54:22.159Z,1.50
2018-09-22T09:56:49.567Z,1.40
2018-09-22T09:59:17.333Z,1.50
2018-09-22T10:01:45.093Z,1.13
2018-09-22T10:04:12.820Z,1.20
2018-09-22T10:06:40.525Z,1.40
2018-09-22T10:09:08.845Z,1.30
2018-09-22T10:11:36.601Z,1.10
2018-09-22T10:14:04.360Z,2.33
2018-09-22T10:16:32.144Z,1.13
2018-09-22T10:18:59.864Z,1.30
2018-09-22T10:21:27.630Z,1.23
2018-09-22T10:23:55.371Z,1.67
2018-09-22T10:26:23.123Z,2.07
2018-09-22T10:28:50.861Z,3.20
2018-09-22T10:31:18.597Z,1.37
2018-09-22T10:33:46.691Z,1.40
2018-09-22T10:36:14.481Z,2.20
2018-09-22T10:38:42.303Z,2.10
2018-09-22T10:41:10.101Z,1.73
2018-09-22T10:43:37.830Z,2.07
2018-09-22T10:46:05.668Z,1.70
2018-09-22T10:48:33.585Z,1.50
2018-09-22T10:51:01.775Z,2.83
2018-09-22T10:53:29.615Z,1.70
2018-09-22T10:55:57.365Z,1.60
2018-09-22T10:58:25.100Z,1.70
2018-09-22T11:00:52.883Z,2.37
2018-09-22T11:03:21.377Z,1.50
2018-09-22T11:05:49.237Z,1.53
2018-09-22T11:08:17.126Z,1.30
2018-09-22T11:10:44.955Z,1.40
2018-09-22T11:13:13.084Z,1.23
2018-09-22T11:15:41.369Z,1.77
2018-09-22T11:18:09.152Z,1.20
2018-09-22T11:20:37.943Z,1.40
2018-09-22T11:23:05.756Z,1.50
2018-09-22T11:25:33.536Z,1.07
2018-09-22T11:28:01.290Z,1.70
2018-09-22T11:30:29.195Z,1.10
2018-09-22T11:32:56.927Z,1.23
2018-09-22T11:35:24.660Z,1.13
2018-09-22T11:37:52.425Z,1.00
2018-09-22T11:40:20.176Z,1.50
2018-09-22T11:42:47.945Z,1.30
2018-09-22T11:45:16.037Z,1.33
2018-09-22T11:47:43.778Z,1.70
2018-09-22T11:50:18.927Z,1.50
2018-09-22T11:52:46.684Z,1.43
2018-09-22T11:55:30.750Z,1.67
2018-09-22T11:57:59.477Z,2.30
2018-09-22T12:00:27.614Z,1.87
2018-09-22T12:02:56.031Z,2.10
2018-09-22T12:05:23.912Z,2.00
2018-09-22T12:07:52.129Z,2.33
2018-09-22T12:10:19.993Z,1.50
2018-09-22T12:12:47.754Z,1.50
2018-09-22T12:15:15.521Z,1.63
2018-09-22T12:17:43.318Z,2.23
2018-09-22T12:20:11.140Z,1.30
2018-09-22T12:22:38.960Z,1.97
2018-09-22T12:25:06.900Z,1.13
2018-09-22T12:27:34.753Z,1.10
2018-09-22T12:30:02.621Z,1.50
2018-09-22T12:32:30.378Z,1.20
2018-09-22T12:34:58.437Z,1.57
2018-09-22T12:37:26.338Z,1.50
2018-09-22T12:39:54.149Z,1.60
2018-09-22T12:42:21.897Z,1.70
2018-09-22T12:44:49.629Z,1.50
2018-09-22T12:47:17.404Z,1.67
2018-09-22T12:49:45.254Z,1.03
2018-09-22T12:52:13.110Z,1.60
2018-09-22T12:54:40.959Z,1.80
2018-09-22T12:57:08.789Z,1.30
2018-09-22T12:59:36.652Z,1.43
2018-09-22T13:02:04.477Z,1.50
2018-09-22T13:04:32.308Z,1.60
2018-09-22T13:07:00.138Z,1.47
2018-09-22T13:09:27.906Z,1.70
2018-09-22T13:11:55.720Z,1.40
2018-09-22T13:14:23.512Z,1.83
2018-09-22T13:16:51.375Z,1.67
2018-09-22T13:19:22.111Z,1.57
2018-09-22T13:21:50.419Z,1.70
2018-09-22T13:24:18.381Z,1.57
2018-09-22T13:26:46.203Z,1.80
2018-09-22T13:29:14.553Z,1.67
2018-09-22T13:31:42.551Z,1.70
2018-09-22T13:34:10.371Z,1.80
2018-09-22T13:36:38.250Z,1.80
2018-09-22T13:39:11.019Z,1.70
2018-09-22T13:41:39.135Z,1.63
2018-09-22T13:44:07.141Z,2.13
2018-09-22T13:46:35.360Z,1.70
2018-09-22T13:49:03.412Z,1.60
2018-09-22T13:51:31.272Z,2.65
2018-09-22T13:53:59.261Z,2.60
2018-09-22T13:56:27.048Z,2.77
2018-09-22T13:58:54.818Z,4.20
2018-09-22T14:01:22.657Z,2.10
2018-09-22T14:03:50.471Z,2.07
2018-09-22T14:06:18.231Z,1.47
2018-09-22T14:08:46.045Z,1.93
2018-09-22T14:11:13.806Z,2.10
2018-09-22T14:13:41.607Z,1.77
2018-09-22T14:16:09.394Z,1.40
2018-09-22T14:18:43.360Z,2.10
2018-09-22T14:21:12.045Z,1.77
2018-09-22T14:23:39.755Z,1.80
2018-09-22T14:26:07.703Z,2.37
2018-09-22T14:28:35.430Z,5.03
2018-09-22T14:31:03.160Z,2.90
2018-09-22T14:33:32.527Z,2.10
2018-09-22T14:36:00.433Z,2.20
2018-09-22T14:38:28.160Z,1.83
2018-09-22T14:40:55.955Z,1.60
2018-09-22T14:43:23.733Z,1.40
2018-09-22T14:45:51.521Z,1.77
2018-09-22T14:48:19.265Z,1.97
2018-09-22T14:50:49.763Z,1.60
2018-09-22T14:53:20.917Z,2.33
2018-09-22T14:55:48.732Z,1.83
2018-09-22T14:58:16.592Z,4.30
2018-09-22T15:00:44.430Z,1.40
2018-09-22T15:03:12.166Z,1.47
2018-09-22T15:05:40.023Z,0.90
2018-09-22T15:08:07.800Z,1.40
2018-09-22T15:10:35.561Z,1.73
2018-09-22T15:13:03.430Z,1.30
2018-09-22T15:15:31.190Z,1.23
2018-09-22T15:17:59.034Z,1.83
2018-09-22T15:20:26.866Z,1.50
2018-09-22T15:22:54.738Z,1.97
2018-09-22T15:25:22.517Z,1.47
2018-09-22T15:27:50.252Z,2.23
2018-09-22T15:30:18.017Z,1.60
2018-09-22T15:32:45.778Z,2.33
2018-09-22T15:35:13.531Z,1.40
2018-09-22T15:37:41.317Z,1.60
2018-09-22T15:40:09.061Z,1.80
2018-09-22T15:42:37.224Z,1.33
2018-09-22T15:45:05.592Z,1.50
2018-09-22T15:47:33.352Z,1.67
2018-09-22T15:50:01.085Z,2.10
2018-09-22T15:52:28.884Z,1.70
2018-09-22T15:54:56.673Z,2.90
2018-09-22T15:57:24.392Z,3.13
2018-09-22T15:59:52.157Z,2.23
2018-09-22T16:02:19.925Z,1.40
2018-09-22T16:04:47.713Z,1.63
2018-09-22T16:07:15.484Z,2.30
2018-09-22T16:09:43.245Z,2.27
2018-09-22T16:12:11.009Z,1.43
2018-09-22T16:14:38.759Z,2.33
2018-09-22T16:17:06.529Z,1.47
2018-09-22T16:19:34.292Z,2.20
2018-09-22T16:22:02.033Z,1.70
2018-09-22T16:24:29.796Z,1.87
2018-09-22T16:26:57.534Z,2.30
2018-09-22T16:29:25.308Z,1.90
2018-09-22T16:31:53.104Z,2.30
2018-09-22T16:34:20.903Z,2.30
2018-09-22T16:36:48.636Z,1.67
2018-09-22T16:39:16.372Z,1.97
2018-09-22T16:41:44.177Z,2.17
2018-09-22T16:44:11.932Z,2.63
2018-09-22T16:46:39.724Z,2.23
2018-09-22T16:49:07.513Z,1.70
2018-09-22T16:51:35.263Z,2.73
2018-09-22T16:54:03.068Z,2.20
2018-09-22T16:56:30.865Z,5.30
2018-09-22T16:58:58.649Z,3.47
2018-09-22T17:01:26.430Z,3.10
2018-09-22T17:03:54.204Z,2.90
2018-09-22T17:06:21.984Z,3.70
2018-09-22T17:08:49.795Z,2.75
2018-09-22T17:11:17.556Z,2.77
2018-09-22T17:13:45.314Z,2.08
2018-09-22T17:16:13.427Z,2.95
2018-09-22T17:18:41.205Z,2.60
2018-09-22T17:21:09.048Z,4.05
2018-09-22T17:23:36.760Z,4.10
2018-09-22T17:26:04.640Z,3.22
2018-09-22T17:28:32.424Z,2.65
2018-09-22T17:31:00.165Z,2.35
2018-09-22T17:33:27.997Z,2.95
2018-09-22T17:35:55.719Z,2.50
2018-09-22T17:38:23.520Z,2.12
2018-09-22T17:40:51.284Z,2.87
2018-09-22T17:43:19.112Z,2.62
2018-09-22T17:45:46.845Z,3.05
2018-09-22T17:48:14.617Z,2.62
2018-09-22T17:50:42.471Z,3.00
2018-09-22T17:53:10.272Z,3.77
2018-09-22T17:55:38.008Z,3.20
2018-09-22T17:58:06.065Z,2.55
2018-09-22T18:00:33.819Z,2.90
2018-09-22T18:03:01.621Z,3.05
2018-09-22T18:05:29.492Z,2.90
2018-09-22T18:07:57.223Z,3.30
2018-09-22T18:10:24.997Z,2.98
2018-09-22T18:12:52.812Z,3.08
2018-09-22T18:15:20.838Z,2.70
2018-09-22T18:17:48.620Z,2.87
2018-09-22T18:20:16.360Z,2.92
2018-09-22T18:22:44.112Z,3.40
2018-09-22T18:25:11.899Z,3.40
2018-09-22T18:27:39.625Z,2.72
2018-09-22T18:30:07.356Z,3.65
2018-09-22T18:32:35.096Z,2.98
2018-09-22T18:35:03.491Z,2.95
2018-09-22T18:37:31.228Z,3.15
2018-09-22T18:39:58.954Z,3.47
2018-09-22T18:42:27.066Z,4.25
2018-09-22T18:44:54.885Z,3.77
2018-09-22T18:47:22.650Z,3.20
2018-09-22T18:49:50.397Z,3.80
2018-09-22T18:52:18.161Z,4.30
2018-09-22T18:54:45.959Z,4.30
2018-09-22T18:57:13.700Z,3.63
2018-09-22T18:59:41.469Z,4.62
2018-09-22T19:02:09.241Z,3.62
2018-09-22T19:04:37.018Z,4.85
2018-09-22T19:07:04.785Z,3.83
2018-09-22T19:09:32.578Z,4.17
2018-09-22T19:12:00.649Z,3.92
2018-09-22T19:14:32.868Z,3.70
2018-09-22T19:17:06.087Z,4.62
2018-09-22T19:20:37.206Z,3.30
2018-09-22T19:23:07.954Z,4.00
2018-09-22T19:25:38.830Z,3.67
2018-09-22T19:28:09.420Z,3.20
2018-09-22T19:30:40.946Z,3.22
2018-09-22T19:34:12.168Z,4.10
2018-09-22T19:36:51.107Z,4.75
2018-09-22T19:39:27.262Z,3.80
2018-09-22T19:44:06.777Z,4.33
2018-09-22T19:46:38.576Z,4.50
2018-09-22T19:49:24.732Z,4.37
2018-09-22T19:51:59.365Z,4.80
2018-09-22T19:54:27.165Z,4.25
2018-09-22T19:56:54.931Z,4.83
2018-09-22T19:59:22.702Z,5.50
2018-09-22T20:01:50.702Z,4.08
2018-09-22T20:04:18.464Z,5.00
2018-09-22T20:06:46.237Z,3.87
2018-09-22T20:09:13.996Z,3.45
2018-09-22T20:11:41.739Z,4.30
2018-09-22T20:14:09.511Z,4.58
2018-09-22T20:16:37.240Z,4.83
2018-09-22T20:19:05.026Z,5.45
2018-09-22T20:21:32.760Z,4.40
2018-09-22T20:24:00.580Z,4.55
2018-09-22T20:26:28.310Z,4.40
2018-09-22T20:28:56.147Z,5.10
2018-09-22T20:31:24.374Z,4.97
2018-09-22T20:33:52.149Z,4.20
2018-09-22T20:36:19.933Z,4.70
2018-09-22T20:38:47.662Z,4.50
2018-09-22T20:41:15.411Z,4.42
2018-09-22T20:43:43.128Z,4.20
2018-09-22T20:46:10.852Z,3.85
2018-09-22T20:48:38.592Z,4.37
2018-09-22T20:51:06.360Z,3.52
2018-09-22T20:53:34.115Z,4.22
2018-09-22T20:56:01.888Z,4.80
2018-09-22T20:58:29.840Z,4.00
2018-09-22T21:00:57.974Z,4.03
2018-09-22T21:03:25.741Z,5.22
2018-09-22T21:05:53.468Z,4.28
2018-09-22T21:08:21.232Z,4.22
2018-09-22T21:10:48.969Z,4.67
2018-09-22T21:13:16.722Z,4.33
2018-09-22T21:15:44.448Z,3.80
2018-09-22T21:18:12.192Z,4.10
2018-09-22T21:20:39.941Z,4.97
2018-09-22T21:23:07.704Z,3.87
2018-09-22T21:25:35.425Z,4.08
2018-09-22T21:28:03.489Z,4.00
2018-09-22T21:30:31.244Z,4.30
2018-09-22T21:32:58.943Z,5.30
2018-09-22T21:35:26.838Z,5.10
2018-09-22T21:37:54.608Z,5.10
2018-09-22T21:40:22.376Z,4.70
2018-09-22T21:42:50.089Z,4.67
2018-09-22T21:45:17.847Z,5.22
2018-09-22T21:47:45.579Z,5.28
2018-09-22T21:50:13.314Z,4.53
2018-09-22T21:52:41.048Z,4.67
2018-09-22T21:55:08.798Z,4.55
2018-09-22T21:57:36.549Z,5.28
2018-09-22T22:00:04.524Z,6.62
2018-09-22T22:02:32.273Z,6.27
2018-09-22T22:05:00.071Z,5.80
2018-09-22T22:07:27.837Z,6.30
2018-09-22T22:09:55.574Z,5.83
2018-09-22T22:12:23.309Z,6.53
2018-09-22T22:14:51.044Z,6.00
2018-09-22T22:17:18.809Z,6.58
2018-09-22T22:19:46.513Z,7.10
2018-09-22T22:22:14.714Z,6.70
2018-09-22T22:24:42.461Z,7.63
2018-09-22T22:27:10.635Z,7.43
2018-09-22T22:29:38.571Z,8.23
2018-09-22T22:32:06.404Z,8.08
2018-09-22T22:34:34.121Z,9.90
2018-09-22T22:37:01.940Z,10.33
2018-09-22T22:39:29.674Z,10.05
2018-09-22T22:41:57.381Z,9.48
2018-09-22T22:44:25.155Z,9.75
2018-09-22T22:46:52.840Z,7.70
2018-09-22T22:49:20.556Z,8.48
2018-09-22T22:51:48.299Z,8.95
2018-09-22T22:54:16.059Z,8.35
2018-09-22T22:56:43.777Z,8.75
2018-09-22T22:59:11.496Z,8.80
2018-09-22T23:01:39.208Z,9.20
2018-09-22T23:04:06.947Z,9.18
2018-09-22T23:06:34.661Z,8.85
2018-09-22T23:09:02.508Z,8.18
2018-09-22T23:11:30.219Z,8.63
2018-09-22T23:13:57.982Z,8.63
2018-09-22T23:16:25.725Z,9.75
2018-09-22T23:18:53.461Z,10.23
2018-09-22T23:21:21.221Z,10.75
2018-09-22T23:23:48.941Z,11.43
2018-09-22T23:26:16.668Z,9.60
2018-09-22T23:28:44.380Z,9.08
2018-09-22T23:31:12.136Z,10.80
2018-09-22T23:33:40.029Z,9.95
2018-09-22T23:36:07.748Z,9.90
2018-09-22T23:38:35.503Z,9.50
2018-09-22T23:41:03.256Z,8.03
2018-09-22T23:43:30.964Z,9.35
2018-09-22T23:45:58.714Z,10.00
2018-09-22T23:48:26.441Z,9.70
2018-09-22T23:50:54.174Z,8.50
2018-09-22T23:53:21.946Z,10.60
2018-09-22T23:55:49.669Z,9.98
2018-09-22T23:58:17.419Z,10.63
